createdAt,value
2022-12-08T00:01:07.525Z,5.53
2022-12-08T00:03:38.147Z,5.38
2022-12-08T00:06:31.823Z,4.97
2022-12-08T00:09:21.607Z,4.22
2022-12-08T00:11:56.186Z,5.93
2022-12-08T00:14:28.636Z,4.70
2022-12-08T00:16:59.574Z,3.72
2022-12-08T00:19:30.055Z,4.65
2022-12-08T00:22:00.615Z,6.00
2022-12-08T00:24:35.009Z,5.95
2022-12-08T00:27:07.238Z,4.68
2022-12-08T00:29:37.225Z,4.75
2022-12-08T00:32:08.453Z,6.88
2022-12-08T00:34:38.525Z,6.90
2022-12-08T00:37:08.875Z,3.63
2022-12-08T00:39:38.875Z,3.65
2022-12-08T00:42:13.899Z,4.00
2022-12-08T00:44:44.767Z,6.50
2022-12-08T00:47:18.726Z,5.60
2022-12-08T00:49:52.333Z,4.53
2022-12-08T00:52:22.957Z,4.63
2022-12-08T00:54:52.946Z,4.97
2022-12-08T00:57:24.806Z,3.92
2022-12-08T00:59:54.861Z,4.07
2022-12-08T01:02:25.175Z,4.75
2022-12-08T01:04:55.165Z,3.47
2022-12-08T01:07:25.592Z,5.93
2022-12-08T01:09:55.465Z,4.55
2022-12-08T01:12:27.444Z,4.47
2022-12-08T01:17:34.115Z,5.78
2022-12-08T01:20:04.311Z,4.03
2022-12-08T01:22:36.718Z,4.60
2022-12-08T01:25:07.139Z,3.17
2022-12-08T01:27:39.004Z,3.33
2022-12-08T01:30:10.226Z,4.55
2022-12-08T01:35:11.066Z,3.40
2022-12-08T01:37:41.376Z,3.95
2022-12-08T01:40:12.029Z,5.45
2022-12-08T01:42:43.789Z,2.40
2022-12-08T01:45:23.408Z,2.72
2022-12-08T01:47:58.096Z,3.78
2022-12-08T01:50:29.586Z,3.38
2022-12-08T01:53:03.769Z,3.00
2022-12-08T01:55:38.598Z,3.33
2022-12-08T01:58:17.660Z,3.65
2022-12-08T02:00:49.176Z,4.20
2022-12-08T02:03:26.051Z,3.80
2022-12-08T02:05:56.428Z,3.90
2022-12-08T02:08:27.669Z,3.57
2022-12-08T02:10:57.701Z,3.25
2022-12-08T02:13:29.669Z,3.15
2022-12-08T02:19:29.187Z,4.25
2022-12-08T02:21:57.339Z,4.97
2022-12-08T02:24:35.417Z,4.30
2022-12-08T02:27:30.168Z,3.83
2022-12-08T02:30:20.169Z,3.58
2022-12-08T02:33:23.128Z,5.03
2022-12-08T02:36:01.151Z,6.00
2022-12-08T02:38:50.262Z,4.18
2022-12-08T02:41:33.690Z,6.03
2022-12-08T02:44:10.588Z,4.22
2022-12-08T02:46:47.562Z,4.47
2022-12-08T02:49:17.577Z,5.55
2022-12-08T02:51:49.469Z,5.70
2022-12-08T02:57:09.582Z,3.83
2022-12-08T02:59:54.080Z,5.15
2022-12-08T03:02:45.037Z,3.40
2022-12-08T03:05:31.637Z,4.20
2022-12-08T03:08:10.185Z,4.13
2022-12-08T03:10:46.720Z,3.55
2022-12-08T03:13:21.961Z,3.95
2022-12-08T03:15:54.600Z,2.78
2022-12-08T03:18:30.584Z,4.22
2022-12-08T03:21:02.012Z,3.38
2022-12-08T03:23:34.319Z,3.70
2022-12-08T03:26:15.360Z,2.33
2022-12-08T03:28:46.159Z,2.92
2022-12-08T03:31:19.481Z,2.53
2022-12-08T03:33:54.029Z,2.85
2022-12-08T03:36:25.260Z,2.88
2022-12-08T03:41:27.661Z,3.40
2022-12-08T03:43:59.830Z,3.75
2022-12-08T03:49:00.641Z,5.00
2022-12-08T03:51:30.691Z,5.15
2022-12-08T03:54:02.511Z,4.38
2022-12-08T03:56:34.499Z,4.25
2022-12-08T03:59:05.735Z,4.50
2022-12-08T04:01:36.276Z,4.00
2022-12-08T04:04:06.707Z,3.47
2022-12-08T04:06:36.759Z,2.80
2022-12-08T04:09:08.563Z,2.38
2022-12-08T04:11:38.620Z,2.30
2022-12-08T04:14:08.913Z,2.70
2022-12-08T04:16:40.038Z,3.55
2022-12-08T04:21:40.157Z,2.08
2022-12-08T04:24:12.089Z,3.60
2022-12-08T04:29:12.220Z,4.43
2022-12-08T04:31:42.310Z,3.15
2022-12-08T04:34:12.720Z,2.25
2022-12-08T04:36:42.698Z,1.45
2022-12-08T04:39:14.590Z,2.75
2022-12-08T04:41:44.719Z,3.17
2022-12-08T04:44:15.168Z,1.90
2022-12-08T04:46:45.330Z,3.10
2022-12-08T04:49:16.639Z,1.10
2022-12-08T04:51:46.619Z,2.33
2022-12-08T04:54:18.520Z,2.65
2022-12-08T04:56:48.520Z,2.70
2022-12-08T04:59:18.768Z,2.58
2022-12-08T05:01:49.061Z,2.53
2022-12-08T05:04:19.549Z,2.00
2022-12-08T05:06:49.628Z,1.92
2022-12-08T05:09:21.630Z,3.35
2022-12-08T05:11:51.839Z,2.08
2022-12-08T05:14:22.758Z,2.22
2022-12-08T05:16:53.027Z,2.13
2022-12-08T05:19:23.753Z,2.55
2022-12-08T05:21:53.712Z,3.53
2022-12-08T05:24:25.764Z,3.20
2022-12-08T05:29:26.952Z,3.92
2022-12-08T05:31:57.517Z,2.40
2022-12-08T05:34:28.146Z,3.50
2022-12-08T05:36:58.131Z,3.97
2022-12-08T05:39:30.231Z,4.82
2022-12-08T05:42:01.092Z,3.40
2022-12-08T05:44:31.541Z,3.72
2022-12-08T05:47:01.341Z,2.42
2022-12-08T05:49:31.684Z,2.85
2022-12-08T05:52:01.542Z,4.00
2022-12-08T05:54:33.285Z,2.55
2022-12-08T05:59:33.336Z,4.50
2022-12-08T06:02:03.390Z,5.55
2022-12-08T06:04:33.892Z,3.05
2022-12-08T06:07:03.975Z,4.97
2022-12-08T06:09:35.884Z,2.90
2022-12-08T06:12:06.035Z,3.42
2022-12-08T06:14:36.395Z,3.97
2022-12-08T06:17:06.455Z,4.30
2022-12-08T06:19:36.872Z,4.38
2022-12-08T06:22:06.712Z,2.92
2022-12-08T06:24:38.624Z,8.68
2022-12-08T06:27:08.493Z,6.40
2022-12-08T06:29:38.829Z,3.65
2022-12-08T06:32:09.195Z,4.93
2022-12-08T06:34:41.041Z,3.33
2022-12-08T06:37:10.904Z,2.92
2022-12-08T06:39:42.824Z,3.75
2022-12-08T06:45:03.361Z,3.72
2022-12-08T06:47:33.493Z,4.82
2022-12-08T06:50:04.366Z,4.28
2022-12-08T06:52:37.688Z,5.57
2022-12-08T06:55:29.097Z,3.70
2022-12-08T06:58:03.584Z,3.95
2022-12-08T07:00:33.952Z,5.60
2022-12-08T07:03:04.054Z,5.10
2022-12-08T07:05:34.482Z,7.00
2022-12-08T07:08:04.819Z,5.10
2022-12-08T07:10:37.204Z,4.63
2022-12-08T07:13:07.492Z,4.88
2022-12-08T07:15:38.075Z,3.30
2022-12-08T07:18:08.082Z,6.20
2022-12-08T07:20:38.746Z,5.15
2022-12-08T07:23:08.595Z,6.78
2022-12-08T07:25:40.643Z,3.83
2022-12-08T07:28:12.343Z,6.07
2022-12-08T07:30:42.872Z,4.32
2022-12-08T07:33:12.874Z,5.90
2022-12-08T07:35:49.013Z,6.65
2022-12-08T07:38:19.667Z,5.13
2022-12-08T07:40:51.932Z,4.93
2022-12-08T07:45:53.642Z,5.00
2022-12-08T07:48:24.247Z,4.97
2022-12-08T07:51:02.958Z,5.05
2022-12-08T07:53:33.824Z,6.43
2022-12-08T07:56:09.013Z,5.05
2022-12-08T07:58:39.309Z,5.45
2022-12-08T08:01:19.960Z,6.87
2022-12-08T08:03:50.084Z,5.70
2022-12-08T08:06:20.386Z,4.60
2022-12-08T08:08:51.296Z,4.68
2022-12-08T08:11:26.166Z,4.75
2022-12-08T08:13:56.213Z,5.25
2022-12-08T08:16:26.658Z,6.40
2022-12-08T08:18:56.796Z,5.20
2022-12-08T08:21:45.022Z,5.03
2022-12-08T08:24:16.085Z,6.47
2022-12-08T08:26:47.829Z,4.93
2022-12-08T08:29:17.977Z,4.15
2022-12-08T08:31:48.293Z,5.45
2022-12-08T08:34:18.785Z,4.50
2022-12-08T08:36:49.193Z,7.97
2022-12-08T08:39:19.338Z,4.95
2022-12-08T08:41:51.184Z,4.78
2022-12-08T08:46:51.126Z,6.57
2022-12-08T08:49:21.723Z,4.28
2022-12-08T08:51:52.812Z,5.03
2022-12-08T08:54:22.873Z,5.93
2022-12-08T08:56:55.104Z,6.43
2022-12-08T09:01:56.307Z,5.55
2022-12-08T09:04:27.128Z,6.15
2022-12-08T09:06:58.135Z,5.50
2022-12-08T09:09:29.072Z,7.28
2022-12-08T09:12:01.563Z,6.38
2022-12-08T09:14:31.569Z,6.55
2022-12-08T09:17:02.305Z,6.55
2022-12-08T09:19:32.574Z,7.40
2022-12-08T09:22:03.105Z,6.67
2022-12-08T09:24:33.533Z,7.55
2022-12-08T09:27:05.531Z,8.50
2022-12-08T09:29:36.391Z,7.53
2022-12-08T09:32:07.506Z,7.82
2022-12-08T09:34:37.674Z,7.37
2022-12-08T09:37:08.377Z,10.00
2022-12-08T09:39:38.322Z,8.60
2022-12-08T09:42:12.073Z,10.48
2022-12-08T09:44:57.654Z,7.47
2022-12-08T09:47:36.068Z,8.93
2022-12-08T09:50:14.334Z,8.82
2022-12-08T09:52:48.916Z,12.30
2022-12-08T09:55:27.097Z,8.88
2022-12-08T09:58:05.165Z,11.38
2022-12-08T10:00:35.958Z,11.25
2022-12-08T10:03:06.705Z,8.85
2022-12-08T10:05:43.412Z,9.38
2022-12-08T10:08:22.519Z,10.25
2022-12-08T10:10:58.692Z,9.35
2022-12-08T10:13:39.114Z,12.63
2022-12-08T10:16:26.609Z,11.00
2022-12-08T10:19:11.974Z,9.48
2022-12-08T10:21:42.404Z,10.10
2022-12-08T10:24:20.753Z,10.88
2022-12-08T10:26:51.771Z,12.13
2022-12-08T10:29:23.819Z,11.63
2022-12-08T10:31:53.949Z,11.63
2022-12-08T10:34:25.713Z,12.15
2022-12-08T10:36:57.560Z,12.30
2022-12-08T10:39:34.977Z,11.77
2022-12-08T10:42:35.488Z,9.82
2022-12-08T10:45:26.351Z,11.10
2022-12-08T10:48:03.479Z,10.02
2022-12-08T10:50:36.816Z,10.30
2022-12-08T10:53:15.741Z,11.15
2022-12-08T10:55:48.097Z,12.13
2022-12-08T10:58:34.121Z,13.10
2022-12-08T11:01:11.434Z,13.77
2022-12-08T11:03:48.088Z,12.20
2022-12-08T11:06:21.520Z,12.00
2022-12-08T11:08:54.419Z,12.23
2022-12-08T11:11:40.781Z,12.13
2022-12-08T11:14:17.809Z,12.02
2022-12-08T11:16:51.208Z,12.25
2022-12-08T11:19:28.139Z,9.88
2022-12-08T11:21:58.910Z,12.38
2022-12-08T11:24:36.032Z,12.32
2022-12-08T11:27:09.179Z,9.38
2022-12-08T11:29:39.399Z,12.07
2022-12-08T11:32:15.380Z,13.10
2022-12-08T11:34:48.537Z,11.18
2022-12-08T11:37:27.489Z,11.00
2022-12-08T11:40:04.898Z,9.30
2022-12-08T11:42:40.600Z,12.00
2022-12-08T11:45:19.420Z,11.98
2022-12-08T11:47:58.666Z,9.90
2022-12-08T11:50:31.849Z,11.93
2022-12-08T11:53:03.318Z,16.73
2022-12-08T11:55:45.221Z,12.73
2022-12-08T11:58:23.943Z,14.15
2022-12-08T12:00:53.909Z,16.70
2022-12-08T12:03:35.032Z,22.63
2022-12-08T12:06:54.763Z,22.13
2022-12-08T12:09:38.569Z,21.08
2022-12-08T12:12:17.506Z,19.17
2022-12-08T12:15:20.200Z,20.65
2022-12-08T12:17:54.794Z,16.05
2022-12-08T12:20:31.440Z,14.90
2022-12-08T12:23:09.175Z,11.35
2022-12-08T12:25:48.759Z,10.20
2022-12-08T12:28:19.259Z,9.75
2022-12-08T12:30:58.395Z,9.15
2022-12-08T12:33:28.958Z,8.90
2022-12-08T12:36:07.133Z,10.15
2022-12-08T12:38:56.556Z,13.27
2022-12-08T12:41:30.038Z,10.43
2022-12-08T12:44:26.646Z,9.30
2022-12-08T12:46:59.867Z,9.52
2022-12-08T12:49:54.616Z,13.70
2022-12-08T12:52:56.917Z,12.30
2022-12-08T12:55:52.769Z,15.05
2022-12-08T12:58:42.952Z,12.18
2022-12-08T13:01:51.210Z,12.20
2022-12-08T13:04:29.798Z,12.48
2022-12-08T13:07:00.684Z,14.15
2022-12-08T13:09:37.548Z,17.38
2022-12-08T13:12:15.033Z,18.80
2022-12-08T13:14:51.108Z,18.55
2022-12-08T13:17:29.512Z,22.95
2022-12-08T13:20:02.988Z,20.40
2022-12-08T13:23:11.090Z,16.95
2022-12-08T13:26:12.635Z,18.85
2022-12-08T13:29:24.276Z,20.23
2022-12-08T13:31:56.294Z,16.52
2022-12-08T13:34:36.338Z,21.58
2022-12-08T13:37:24.088Z,21.92
2022-12-08T13:39:57.359Z,26.08
2022-12-08T13:42:38.958Z,28.52
2022-12-08T13:45:48.719Z,30.67
2022-12-08T13:48:35.188Z,30.75
2022-12-08T13:53:15.840Z,23.90
2022-12-08T13:55:01.390Z,31.80
2022-12-08T13:57:11.460Z,28.55
2022-12-08T13:59:47.572Z,23.45
2022-12-08T14:02:22.668Z,23.88
2022-12-08T14:05:17.451Z,26.13
2022-12-08T14:07:45.444Z,46.25
2022-12-08T14:10:20.638Z,38.22
2022-12-08T14:12:58.337Z,34.22
2022-12-08T14:15:36.870Z,32.28
2022-12-08T14:18:24.503Z,35.63
2022-12-08T14:21:21.640Z,30.35
2022-12-08T14:23:52.103Z,28.42
2022-12-08T14:26:22.670Z,37.33
2022-12-08T14:28:54.540Z,33.15
2022-12-08T14:31:27.241Z,33.88
2022-12-08T14:33:58.640Z,34.40
2022-12-08T14:36:29.327Z,31.58
2022-12-08T14:39:00.690Z,38.85
2022-12-08T14:41:35.149Z,33.97
2022-12-08T14:44:06.160Z,46.90
2022-12-08T14:46:38.638Z,44.47
2022-12-08T14:49:29.180Z,42.97
2022-12-08T14:52:01.789Z,40.55
2022-12-08T14:54:33.319Z,48.53
2022-12-08T14:57:04.693Z,39.17
2022-12-08T14:59:39.257Z,43.13
2022-12-08T15:02:25.940Z,42.25
2022-12-08T15:05:03.617Z,44.45
2022-12-08T15:07:47.334Z,38.78
2022-12-08T15:10:29.828Z,37.60
2022-12-08T15:13:22.614Z,43.72
2022-12-08T15:15:54.505Z,39.75
2022-12-08T15:18:38.957Z,37.97
2022-12-08T15:21:13.920Z,37.65
2022-12-08T15:23:47.828Z,40.83
2022-12-08T15:26:24.665Z,42.95
2022-12-08T15:28:59.399Z,38.35
2022-12-08T15:31:33.318Z,41.00
2022-12-08T15:34:06.758Z,48.92
2022-12-08T15:36:38.420Z,49.65
2022-12-08T15:39:19.521Z,46.67
2022-12-08T15:41:50.692Z,48.30
2022-12-08T15:44:21.832Z,50.10
2022-12-08T15:46:52.164Z,46.45
2022-12-08T15:49:26.299Z,51.47
2022-12-08T15:52:08.097Z,45.70
2022-12-08T15:54:41.599Z,44.55
2022-12-08T15:57:44.176Z,48.80
2022-12-08T16:00:52.205Z,47.38
2022-12-08T16:04:09.398Z,48.03
2022-12-08T16:09:18.963Z,42.65
2022-12-08T16:12:08.942Z,51.60
2022-12-08T16:17:34.209Z,52.35
2022-12-08T16:20:06.807Z,63.67
2022-12-08T16:23:03.178Z,53.08
2022-12-08T16:28:53.002Z,55.20
2022-12-08T16:31:21.389Z,57.67
2022-12-08T16:33:53.988Z,51.20
2022-12-08T16:36:24.844Z,52.33
2022-12-08T16:38:58.708Z,51.45
2022-12-08T16:41:46.984Z,59.47
2022-12-08T16:44:17.568Z,47.70
2022-12-08T16:46:47.708Z,50.88
2022-12-08T16:49:18.077Z,53.88
2022-12-08T16:51:48.017Z,52.97
2022-12-08T16:54:19.968Z,54.25
2022-12-08T16:59:19.719Z,49.80
2022-12-08T17:01:50.419Z,53.22
2022-12-08T17:04:31.374Z,55.00
2022-12-08T17:07:02.512Z,57.00
2022-12-08T17:09:34.939Z,54.53
2022-12-08T17:12:05.507Z,61.08
2022-12-08T17:14:36.898Z,59.88
2022-12-08T17:17:07.333Z,59.00
2022-12-08T17:19:37.837Z,53.13
2022-12-08T17:22:07.867Z,61.97
2022-12-08T17:24:39.727Z,59.95
2022-12-08T17:27:09.860Z,60.85
2022-12-08T17:29:40.451Z,57.70
2022-12-08T17:32:13.970Z,62.42
2022-12-08T17:34:44.328Z,61.47
2022-12-08T17:37:14.409Z,63.45
2022-12-08T17:39:47.217Z,55.22
2022-12-08T17:44:47.588Z,63.28
2022-12-08T17:47:17.547Z,62.35
2022-12-08T17:49:48.341Z,67.05
2022-12-08T17:52:18.619Z,64.68
2022-12-08T17:54:50.668Z,65.50
2022-12-08T17:57:20.772Z,64.28
2022-12-08T17:59:51.175Z,64.38
2022-12-08T18:02:23.100Z,66.82
2022-12-08T18:04:53.530Z,69.15
2022-12-08T18:07:23.463Z,70.60
2022-12-08T18:09:55.579Z,73.75
2022-12-08T18:12:25.636Z,64.82
2022-12-08T18:14:55.969Z,77.90
2022-12-08T18:17:25.996Z,77.15
2022-12-08T18:19:56.759Z,72.97
2022-12-08T18:22:30.050Z,82.40
2022-12-08T18:25:05.641Z,70.95
2022-12-08T18:27:42.747Z,74.72
2022-12-08T18:30:18.961Z,74.10
2022-12-08T18:32:55.724Z,79.68
2022-12-08T18:35:29.451Z,88.18
2022-12-08T18:38:00.481Z,112.30
2022-12-08T18:40:33.585Z,98.30
2022-12-08T18:43:04.500Z,90.43
2022-12-08T18:45:37.254Z,133.23
2022-12-08T18:48:09.020Z,98.85
2022-12-08T18:50:43.293Z,86.45
2022-12-08T18:53:13.466Z,84.20
2022-12-08T18:55:46.984Z,87.45
2022-12-08T18:58:17.448Z,91.68
2022-12-08T19:00:49.624Z,75.90
2022-12-08T19:03:19.968Z,91.03
2022-12-08T19:05:50.468Z,80.97
2022-12-08T19:08:22.553Z,77.95
2022-12-08T19:10:56.158Z,80.00
2022-12-08T19:13:27.499Z,70.32
2022-12-08T19:15:58.291Z,75.05
2022-12-08T19:18:28.308Z,76.15
2022-12-08T19:20:59.938Z,80.13
2022-12-08T19:23:31.994Z,86.00
2022-12-08T19:26:06.306Z,89.05
2022-12-08T19:28:37.522Z,115.97
2022-12-08T19:31:11.098Z,116.25
2022-12-08T19:33:41.719Z,112.97
2022-12-08T19:36:15.077Z,119.20
2022-12-08T19:39:02.824Z,111.18
2022-12-08T19:41:52.504Z,106.32
2022-12-08T19:44:41.227Z,101.45
2022-12-08T19:47:12.269Z,88.90
2022-12-08T19:49:42.483Z,90.10
2022-12-08T19:52:12.909Z,83.00
2022-12-08T19:54:43.141Z,79.28
2022-12-08T19:57:14.988Z,75.38
2022-12-08T19:59:45.079Z,94.00
2022-12-08T20:02:15.681Z,79.97
2022-12-08T20:04:46.178Z,84.40
2022-12-08T20:07:17.095Z,79.40
2022-12-08T20:09:47.526Z,87.57
2022-12-08T20:12:19.312Z,97.57
2022-12-08T20:14:49.691Z,81.82
2022-12-08T20:17:20.178Z,61.93
2022-12-08T20:19:50.217Z,69.30
2022-12-08T20:22:20.870Z,78.77
2022-12-08T20:25:09.630Z,81.35
2022-12-08T20:27:43.019Z,80.72
2022-12-08T20:30:17.068Z,90.57
2022-12-08T20:32:48.250Z,83.40
2022-12-08T20:35:18.588Z,91.82
2022-12-08T20:37:49.149Z,112.82
2022-12-08T20:40:21.877Z,114.20
2022-12-08T20:42:54.629Z,111.82
2022-12-08T20:47:55.087Z,109.97
2022-12-08T20:50:25.547Z,92.95
2022-12-08T20:52:56.296Z,100.07
2022-12-08T20:55:26.945Z,87.75
2022-12-08T20:57:59.960Z,99.22
2022-12-08T21:00:31.642Z,97.80
2022-12-08T21:03:05.441Z,91.90
2022-12-08T21:05:39.121Z,90.93
2022-12-08T21:08:10.056Z,102.88
2022-12-08T21:10:43.788Z,95.30
2022-12-08T21:13:17.543Z,91.55
2022-12-08T21:15:49.043Z,95.13
2022-12-08T21:18:20.213Z,86.45
2022-12-08T21:20:51.558Z,87.30
2022-12-08T21:23:22.027Z,96.45
2022-12-08T21:25:52.777Z,76.45
2022-12-08T21:28:25.294Z,78.18
2022-12-08T21:30:58.071Z,74.57
2022-12-08T21:33:30.899Z,77.10
2022-12-08T21:36:08.256Z,77.47
2022-12-08T21:38:40.442Z,73.80
2022-12-08T21:41:12.844Z,74.78
2022-12-08T21:43:45.137Z,71.38
2022-12-08T21:46:21.253Z,77.20
2022-12-08T21:48:51.835Z,74.00
2022-12-08T21:51:23.439Z,76.43
2022-12-08T21:53:54.088Z,70.10
2022-12-08T21:56:24.518Z,84.20
2022-12-08T21:58:58.307Z,71.47
2022-12-08T22:01:29.029Z,72.55
2022-12-08T22:04:00.673Z,62.63
2022-12-08T22:06:31.608Z,52.85
2022-12-08T22:09:02.713Z,48.35
2022-12-08T22:11:33.352Z,56.22
2022-12-08T22:14:10.860Z,53.38
2022-12-08T22:16:44.356Z,59.33
2022-12-08T22:19:15.267Z,56.42
2022-12-08T22:21:46.500Z,65.97
2022-12-08T22:24:16.916Z,67.93
2022-12-08T22:26:47.177Z,55.75
2022-12-08T22:29:19.669Z,53.93
2022-12-08T22:31:50.718Z,61.47
2022-12-08T22:34:21.205Z,55.25
2022-12-08T22:36:51.679Z,54.63
2022-12-08T22:39:22.130Z,59.05
2022-12-08T22:41:52.728Z,52.67
2022-12-08T22:44:25.088Z,47.00
2022-12-08T22:46:55.508Z,35.72
2022-12-08T22:49:26.657Z,48.13
2022-12-08T22:51:57.361Z,41.97
2022-12-08T22:54:28.207Z,36.90
2022-12-08T22:56:58.362Z,33.55
2022-12-08T22:59:33.758Z,41.10
2022-12-08T23:02:04.106Z,34.88
2022-12-08T23:04:34.786Z,42.45
2022-12-08T23:07:05.044Z,41.00
2022-12-08T23:09:35.437Z,37.90
2022-12-08T23:12:05.842Z,38.53
2022-12-08T23:14:37.868Z,42.28
2022-12-08T23:17:08.321Z,38.75
2022-12-08T23:19:38.749Z,37.67
2022-12-08T23:22:09.578Z,45.78
2022-12-08T23:24:40.462Z,38.20
2022-12-08T23:27:10.669Z,38.88
2022-12-08T23:29:42.388Z,37.37
2022-12-08T23:32:12.580Z,39.80
2022-12-08T23:34:43.228Z,46.55
2022-12-08T23:37:13.431Z,44.97
2022-12-08T23:39:44.056Z,46.90
2022-12-08T23:42:14.595Z,45.83
2022-12-08T23:44:46.796Z,41.45
2022-12-08T23:47:17.157Z,45.60
2022-12-08T23:49:47.902Z,48.47
2022-12-08T23:52:17.849Z,45.17
2022-12-08T23:54:48.229Z,42.47
2022-12-08T23:57:18.264Z,39.10
2022-12-08T23:59:50.515Z,41.30
